Bookmark and Share
Track history (hours):
 

Molengracht

Last reported at 2014-Apr-20 23:26 UTC. Time now 2014-Apr-21 12:22 UTC.
Position N 01°14' E 103°58'.

Length 143 m; draft 6.5 m.

Type: Cargo ship. MMSI: 246770000.

NotesDate/timePositionNaut miles runAvg speedWind from/ knotsBaromVisibWave heightAir tempDewpointWater temp
2014-Apr-20 23:26N 01°14' E 103°58'5 2.1
2014-Apr-20 21:06N 01°15' E 103°53'0 0.0
2014-Apr-20 20:30N 01°15' E 103°53'0 0.0
2014-Apr-20 19:24N 01°15' E 103°53'0 0.0
2014-Apr-20 13:09N 01°15' E 103°53'0 0.0
2014-Apr-20 07:27N 01°15' E 103°53'0 0.0
2014-Apr-20 05:09N 01°15' E 103°53'0 0.1
2014-Apr-20 04:21N 01°15' E 103°53'0 0.0
2014-Apr-20 00:33N 01°15' E 103°53'0 0.1
2014-Apr-19 22:29N 01°15' E 103°53'  
2014-Apr-15 03:33N 22°46' E 119°53'51512.8
2014-Apr-13 11:18N 31°10' E 121°51'1215.0
2014-Apr-13 10:32N 31°19' E 121°42'1111.0
2014-Apr-13 09:33N 31°25' E 121°32'8 8.5
2014-Apr-13 08:34N 31°30' E 121°25'2612.0
2014-Apr-13 06:24N 31°46' E 121°01'910.9
2014-Apr-13 05:33N 31°53' E 120°53'10 9.5
2014-Apr-13 04:32N 32°00' E 120°45'0 0.2
2014-Apr-13 03:32N 31°60' E 120°46'0 0.1
2014-Apr-13 02:32N 32°00' E 120°46'0 0.0
2014-Apr-13 01:32N 32°00' E 120°46'0 0.0
2014-Apr-13 00:32N 32°00' E 120°46'0 0.0
2014-Apr-12 23:26N 32°00' E 120°46'0 0.0
2014-Apr-12 22:20N 32°00' E 120°46'0 0.0
2014-Apr-12 21:32N 31°60' E 120°46'0 0.1
2014-Apr-12 20:32N 31°60' E 120°46'0 0.1
2014-Apr-12 19:20N 31°60' E 120°45'0 0.0
2014-Apr-12 18:20N 31°60' E 120°45'0 0.0
2014-Apr-12 17:32N 31°60' E 120°45'0 0.1
2014-Apr-12 15:32N 31°60' E 120°46'0 0.1
2014-Apr-12 14:20N 32°00' E 120°46'0 0.0
2014-Apr-12 13:32N 32°00' E 120°46'0 0.0
2014-Apr-12 12:20N 32°00' E 120°46'0 0.0
2014-Apr-12 10:26N 32°00' E 120°46'0 0.0
2014-Apr-12 09:32N 31°60' E 120°46'0 0.0
2014-Apr-12 08:20N 31°60' E 120°46'0 0.1
2014-Apr-12 07:26N 31°60' E 120°46'0 0.2
2014-Apr-12 06:32N 31°60' E 120°45'0 0.0
2014-Apr-12 05:32N 32°00' E 120°45'0 0.0
2014-Apr-12 04:26N 32°00' E 120°45'0 0.1
2014-Apr-12 03:32N 32°00' E 120°45'0 0.1
2014-Apr-12 02:32N 32°00' E 120°46'0 0.1
2014-Apr-12 01:32N 32°00' E 120°46'0 0.1
2014-Apr-12 00:32N 32°00' E 120°46'0 0.0
2014-Apr-11 23:20N 31°60' E 120°46'0 0.0
2014-Apr-11 22:08N 31°60' E 120°46'0 0.1
2014-Apr-11 21:21N 32°00' E 120°46'0 0.2
2014-Apr-11 20:20N 32°00' E 120°45'0 0.1
2014-Apr-11 19:26N 32°00' E 120°45'0 0.0
2014-Apr-11 18:14N 32°00' E 120°45'0 0.0
2014-Apr-11 17:20N 32°00' E 120°45'0 0.0
2014-Apr-11 16:32N 32°00' E 120°45'0 0.1
2014-Apr-11 14:20N 32°00' E 120°46'0 0.0
2014-Apr-11 13:26N 32°00' E 120°46'0 0.1
2014-Apr-11 12:32N 31°60' E 120°46'0 0.0
2014-Apr-11 11:26N 31°60' E 120°46'0 0.0
2014-Apr-11 10:26N 32°00' E 120°46'0 0.0
2014-Apr-11 09:26N 32°00' E 120°46'0 0.0
2014-Apr-11 08:32N 32°00' E 120°46'0 0.1
2014-Apr-11 07:32N 32°00' E 120°45'0 0.1
2014-Apr-11 06:20N 32°00' E 120°45'0 0.0
2014-Apr-11 05:32N 32°00' E 120°45'0 0.0
2014-Apr-11 04:32N 32°00' E 120°45'0 0.0
2014-Apr-11 03:32N 32°00' E 120°45'0 0.1
2014-Apr-11 02:32N 32°00' E 120°45'0 0.1
2014-Apr-11 01:20N 32°00' E 120°46'0 0.0
2014-Apr-11 00:26N 32°00' E 120°46'  

Dump ship's entire track history

sailing weather and tide predictions

Molengracht — PCJG — position and weather